createdAt,value
2022-08-26T00:00:35.699Z,10.40
2022-08-26T00:01:35.714Z,10.20
2022-08-26T00:02:35.773Z,10.50
2022-08-26T00:03:36.016Z,10.40
2022-08-26T00:04:35.963Z,10.70
2022-08-26T00:05:35.773Z,10.20
2022-08-26T00:06:35.789Z,10.60
2022-08-26T00:07:36.005Z,10.80
2022-08-26T00:08:35.821Z,10.10
2022-08-26T00:09:38.920Z,10.70
2022-08-26T00:10:35.852Z,10.60
2022-08-26T00:11:35.863Z,10.20
2022-08-26T00:12:37.612Z,10.40
2022-08-26T00:13:35.889Z,10.40
2022-08-26T00:14:36.106Z,10.60
2022-08-26T00:15:35.920Z,10.30
2022-08-26T00:16:35.934Z,10.20
2022-08-26T00:17:36.357Z,10.80
2022-08-26T00:18:38.881Z,9.90
2022-08-26T00:19:35.978Z,10.10
2022-08-26T00:20:35.991Z,9.70
2022-08-26T00:21:37.622Z,10.30
2022-08-26T00:22:36.023Z,10.30
2022-08-26T00:23:36.038Z,10.10
2022-08-26T00:24:36.051Z,10.50
2022-08-26T00:25:36.068Z,9.80
2022-08-26T00:26:36.080Z,10.30
2022-08-26T00:27:36.095Z,10.10
2022-08-26T00:28:36.109Z,9.90
2022-08-26T00:29:37.754Z,10.10
2022-08-26T00:30:36.138Z,10.20
2022-08-26T00:31:36.203Z,10.20
2022-08-26T00:32:36.166Z,10.40
2022-08-26T00:33:36.181Z,10.80
2022-08-26T00:34:36.196Z,10.80
2022-08-26T00:35:36.243Z,10.00
2022-08-26T00:36:36.225Z,10.20
2022-08-26T00:37:36.241Z,9.90
2022-08-26T00:38:37.878Z,10.20
2022-08-26T00:39:36.270Z,10.10
2022-08-26T00:40:36.283Z,10.50
2022-08-26T00:41:36.299Z,10.10
2022-08-26T00:42:36.312Z,10.20
2022-08-26T00:43:47.349Z,9.90
2022-08-26T00:44:36.341Z,9.90
2022-08-26T00:45:36.392Z,10.10
2022-08-26T00:46:36.380Z,10.00
2022-08-26T00:47:36.386Z,10.00
2022-08-26T00:48:36.400Z,10.40
2022-08-26T00:49:36.416Z,10.20
2022-08-26T00:50:36.429Z,10.10
2022-08-26T00:51:36.445Z,10.20
2022-08-26T00:52:36.460Z,10.20
2022-08-26T00:53:36.475Z,10.10
2022-08-26T00:54:36.489Z,9.90
2022-08-26T00:55:37.926Z,9.70
2022-08-26T00:56:36.516Z,10.20
2022-08-26T00:57:36.532Z,10.50
2022-08-26T00:58:36.547Z,10.40
2022-08-26T00:59:36.563Z,10.40
2022-08-26T01:00:36.574Z,10.00
2022-08-26T01:01:36.591Z,10.20
2022-08-26T01:02:36.633Z,9.80
2022-08-26T01:03:36.619Z,10.30
2022-08-26T01:04:36.632Z,9.70
2022-08-26T01:05:36.647Z,9.70
2022-08-26T01:06:36.663Z,10.10
2022-08-26T01:07:36.677Z,9.80
2022-08-26T01:08:36.691Z,10.20
2022-08-26T01:09:36.706Z,10.00
2022-08-26T01:10:36.721Z,9.70
2022-08-26T01:11:36.735Z,9.90
2022-08-26T01:12:36.752Z,9.70
2022-08-26T01:13:36.763Z,10.20
2022-08-26T01:14:36.867Z,10.30
2022-08-26T01:15:36.793Z,9.70
2022-08-26T01:16:36.885Z,9.70
2022-08-26T01:17:36.822Z,9.40
2022-08-26T01:18:36.836Z,10.10
2022-08-26T01:19:36.850Z,10.10
2022-08-26T01:20:36.866Z,9.80
2022-08-26T01:21:40.570Z,10.10
2022-08-26T01:22:36.894Z,9.60
2022-08-26T01:23:36.908Z,10.00
2022-08-26T01:24:36.934Z,9.80
2022-08-26T01:25:36.936Z,9.60
2022-08-26T01:26:36.958Z,9.80
2022-08-26T01:27:36.975Z,10.20
2022-08-26T01:28:36.984Z,10.10
2022-08-26T01:29:36.999Z,10.30
2022-08-26T01:30:37.015Z,10.00
2022-08-26T01:31:37.049Z,10.00
2022-08-26T01:32:38.955Z,10.10
2022-08-26T01:33:41.510Z,10.00
2022-08-26T01:34:37.067Z,9.60
2022-08-26T01:35:37.083Z,9.80
2022-08-26T01:36:37.097Z,10.10
2022-08-26T01:37:37.110Z,10.10
2022-08-26T01:38:37.127Z,10.20
2022-08-26T01:39:37.140Z,9.80
2022-08-26T01:40:37.154Z,10.00
2022-08-26T01:41:37.169Z,9.90
2022-08-26T01:42:37.183Z,9.70
2022-08-26T01:43:37.199Z,10.00
2022-08-26T01:44:37.211Z,10.20
2022-08-26T01:45:37.264Z,10.20
2022-08-26T01:46:37.347Z,9.90
2022-08-26T01:47:37.255Z,10.00
2022-08-26T01:48:37.269Z,10.20
2022-08-26T01:49:37.285Z,9.70
2022-08-26T01:50:37.299Z,9.90
2022-08-26T01:51:37.378Z,9.60
2022-08-26T01:52:37.327Z,9.80
2022-08-26T01:53:37.342Z,9.80
2022-08-26T01:54:37.356Z,9.60
2022-08-26T01:55:37.373Z,9.70
2022-08-26T01:56:37.384Z,9.50
2022-08-26T01:57:37.400Z,9.50
2022-08-26T01:58:37.420Z,9.50
2022-08-26T01:59:37.428Z,9.90
2022-08-26T02:00:37.542Z,10.10
2022-08-26T02:01:37.458Z,9.60
2022-08-26T02:02:37.481Z,10.00
2022-08-26T02:03:38.746Z,10.00
2022-08-26T02:04:37.614Z,9.20
2022-08-26T02:05:37.516Z,10.20
2022-08-26T02:06:37.530Z,9.60
2022-08-26T02:07:37.546Z,9.70
2022-08-26T02:08:37.559Z,9.60
2022-08-26T02:09:38.446Z,9.60
2022-08-26T02:10:37.586Z,9.70
2022-08-26T02:11:37.603Z,9.10
2022-08-26T02:12:37.616Z,9.90
2022-08-26T02:13:37.631Z,9.60
2022-08-26T02:14:43.582Z,9.30
2022-08-26T02:15:37.666Z,9.30
2022-08-26T02:16:37.812Z,9.30
2022-08-26T02:17:37.690Z,9.40
2022-08-26T02:18:37.704Z,9.80
2022-08-26T02:19:37.718Z,9.40
2022-08-26T02:20:37.732Z,9.30
2022-08-26T02:21:37.746Z,9.70
2022-08-26T02:22:37.760Z,9.10
2022-08-26T02:23:37.774Z,9.60
2022-08-26T02:24:37.788Z,9.10
2022-08-26T02:25:38.291Z,9.70
2022-08-26T02:26:37.817Z,9.40
2022-08-26T02:27:37.832Z,9.30
2022-08-26T02:28:37.850Z,9.40
2022-08-26T02:29:37.862Z,9.40
2022-08-26T02:30:37.876Z,9.30
2022-08-26T02:31:37.984Z,9.70
2022-08-26T02:32:37.903Z,9.70
2022-08-26T02:33:37.918Z,9.30
2022-08-26T02:34:37.931Z,9.20
2022-08-26T02:35:37.950Z,9.20
2022-08-26T02:36:37.961Z,9.60
2022-08-26T02:37:37.981Z,9.40
2022-08-26T02:38:37.993Z,9.30
2022-08-26T02:39:38.005Z,9.50
2022-08-26T02:40:38.018Z,9.30
2022-08-26T02:41:44.829Z,9.40
2022-08-26T02:42:38.049Z,9.50
2022-08-26T02:43:38.064Z,9.20
2022-08-26T02:44:38.077Z,9.40
2022-08-26T02:45:38.092Z,9.10
2022-08-26T02:46:38.176Z,9.10
2022-08-26T02:47:38.119Z,9.10
2022-08-26T02:48:38.335Z,9.10
2022-08-26T02:49:38.148Z,9.40
2022-08-26T02:50:38.172Z,9.50
2022-08-26T02:51:38.176Z,9.40
2022-08-26T02:52:38.192Z,9.10
2022-08-26T02:53:38.207Z,9.30
2022-08-26T02:54:38.223Z,9.00
2022-08-26T02:55:38.235Z,8.90
2022-08-26T02:56:38.249Z,9.00
2022-08-26T02:57:38.266Z,9.10
2022-08-26T02:58:38.280Z,9.30
2022-08-26T02:59:38.293Z,9.30
2022-08-26T03:00:38.388Z,9.30
2022-08-26T03:01:38.376Z,9.40
2022-08-26T03:02:38.336Z,9.40
2022-08-26T03:03:38.349Z,9.70
2022-08-26T03:04:38.362Z,9.00
2022-08-26T03:05:38.378Z,9.50
2022-08-26T03:06:38.405Z,9.50
2022-08-26T03:07:38.407Z,9.20
2022-08-26T03:08:38.422Z,8.90
2022-08-26T03:09:38.436Z,9.20
2022-08-26T03:10:38.450Z,8.80
2022-08-26T03:11:38.465Z,9.60
2022-08-26T03:12:38.479Z,9.20
2022-08-26T03:13:38.490Z,9.10
2022-08-26T03:14:38.507Z,8.70
2022-08-26T03:15:38.521Z,8.80
2022-08-26T03:16:38.534Z,9.10
2022-08-26T03:17:38.550Z,8.80
2022-08-26T03:18:38.566Z,9.00
2022-08-26T03:19:38.578Z,8.90
2022-08-26T03:20:38.592Z,9.20
2022-08-26T03:21:38.609Z,8.60
2022-08-26T03:22:38.623Z,9.20
2022-08-26T03:23:38.635Z,9.00
2022-08-26T03:24:38.648Z,8.90
2022-08-26T03:25:38.665Z,9.00
2022-08-26T03:26:38.679Z,9.20
2022-08-26T03:27:38.692Z,8.80
2022-08-26T03:28:38.706Z,8.60
2022-08-26T03:29:38.721Z,8.70
2022-08-26T03:30:38.741Z,8.50
2022-08-26T03:31:38.807Z,8.80
2022-08-26T03:32:38.763Z,8.80
2022-08-26T03:33:38.780Z,9.20
2022-08-26T03:34:38.794Z,8.70
2022-08-26T03:35:38.806Z,9.30
2022-08-26T03:36:38.854Z,9.20
2022-08-26T03:37:38.836Z,8.90
2022-08-26T03:38:38.850Z,9.00
2022-08-26T03:39:38.866Z,9.00
2022-08-26T03:40:38.876Z,8.60
2022-08-26T03:41:38.898Z,9.30
2022-08-26T03:42:38.915Z,9.00
2022-08-26T03:43:38.921Z,9.20
2022-08-26T03:44:40.096Z,9.00
2022-08-26T03:45:38.950Z,9.10
2022-08-26T03:46:39.038Z,8.40
2022-08-26T03:47:38.978Z,8.90
2022-08-26T03:48:38.991Z,8.70
2022-08-26T03:49:39.008Z,8.90
2022-08-26T03:50:39.023Z,8.90
2022-08-26T03:51:39.132Z,9.30
2022-08-26T03:52:43.566Z,9.00
2022-08-26T03:53:39.064Z,8.20
2022-08-26T03:54:39.077Z,9.00
2022-08-26T03:55:39.093Z,9.10
2022-08-26T03:56:39.105Z,8.60
2022-08-26T03:57:39.119Z,8.80
2022-08-26T03:58:39.134Z,9.10
2022-08-26T03:59:39.150Z,8.80
2022-08-26T04:00:39.165Z,8.60
2022-08-26T04:01:39.200Z,8.50
2022-08-26T04:02:39.234Z,8.60
2022-08-26T04:03:39.206Z,9.20
2022-08-26T04:04:39.221Z,8.90
2022-08-26T04:05:39.236Z,9.30
2022-08-26T04:06:39.255Z,8.90
2022-08-26T04:07:39.263Z,9.00
2022-08-26T04:08:39.278Z,8.80
2022-08-26T04:09:39.290Z,8.90
2022-08-26T04:10:39.306Z,8.90
2022-08-26T04:11:39.379Z,9.20
2022-08-26T04:12:39.333Z,8.90
2022-08-26T04:13:39.349Z,8.70
2022-08-26T04:14:39.362Z,8.60
2022-08-26T04:15:39.376Z,8.80
2022-08-26T04:16:39.394Z,9.20
2022-08-26T04:17:39.404Z,8.70
2022-08-26T04:18:46.424Z,8.90
2022-08-26T04:19:39.433Z,9.20
2022-08-26T04:20:39.448Z,8.90
2022-08-26T04:21:39.462Z,8.50
2022-08-26T04:22:39.476Z,8.80
2022-08-26T04:23:47.648Z,9.20
2022-08-26T04:24:39.507Z,8.90
2022-08-26T04:25:39.519Z,9.00
2022-08-26T04:26:42.905Z,8.80
2022-08-26T04:27:40.758Z,8.90
2022-08-26T04:28:39.560Z,8.80
2022-08-26T04:29:39.574Z,8.60
2022-08-26T04:30:39.592Z,8.60
2022-08-26T04:31:39.680Z,8.80
2022-08-26T04:32:39.617Z,9.10
2022-08-26T04:33:41.847Z,8.80
2022-08-26T04:34:39.646Z,8.90
2022-08-26T04:35:39.662Z,8.70
2022-08-26T04:36:39.675Z,8.40
2022-08-26T04:37:39.689Z,8.90
2022-08-26T04:38:39.703Z,8.50
2022-08-26T04:39:39.718Z,8.60
2022-08-26T04:40:39.731Z,8.90
2022-08-26T04:41:39.746Z,8.70
2022-08-26T04:42:39.763Z,8.70
2022-08-26T04:43:39.774Z,8.90
2022-08-26T04:44:39.788Z,9.00
2022-08-26T04:45:39.804Z,9.10
2022-08-26T04:46:43.798Z,9.10
2022-08-26T04:47:39.833Z,9.00
2022-08-26T04:48:39.845Z,8.70
2022-08-26T04:49:39.859Z,9.10
2022-08-26T04:50:39.874Z,9.00
2022-08-26T04:51:39.888Z,9.20
2022-08-26T04:52:39.900Z,9.20
2022-08-26T04:53:39.916Z,8.80
2022-08-26T04:54:42.047Z,9.00
2022-08-26T04:55:44.196Z,8.80
2022-08-26T04:56:39.959Z,9.20
2022-08-26T04:57:39.973Z,8.80
2022-08-26T04:58:39.989Z,8.70
2022-08-26T04:59:40.004Z,9.00
2022-08-26T05:00:40.014Z,9.10
2022-08-26T05:01:40.056Z,8.90
2022-08-26T05:02:40.043Z,8.80
2022-08-26T05:03:40.120Z,8.80
2022-08-26T05:04:40.073Z,9.10
2022-08-26T05:05:40.085Z,9.30
2022-08-26T05:06:40.101Z,9.10
2022-08-26T05:07:40.115Z,8.90
2022-08-26T05:08:40.130Z,9.00
2022-08-26T05:09:40.143Z,9.40
2022-08-26T05:10:40.157Z,8.50
2022-08-26T05:11:40.171Z,8.80
2022-08-26T05:12:40.186Z,8.70
2022-08-26T05:13:40.201Z,9.00
2022-08-26T05:14:40.214Z,9.00
2022-08-26T05:15:40.254Z,8.80
2022-08-26T05:16:40.410Z,8.70
2022-08-26T05:17:40.256Z,8.90
2022-08-26T05:18:40.278Z,9.30
2022-08-26T05:19:42.962Z,9.20
2022-08-26T05:20:40.298Z,8.70
2022-08-26T05:21:40.312Z,8.90
2022-08-26T05:22:40.330Z,9.00
2022-08-26T05:23:40.343Z,9.10
2022-08-26T05:24:40.354Z,8.70
2022-08-26T05:25:40.371Z,9.00
2022-08-26T05:26:40.384Z,9.00
2022-08-26T05:27:40.397Z,9.00
2022-08-26T05:28:40.410Z,8.70
2022-08-26T05:29:40.425Z,9.00
2022-08-26T05:30:40.552Z,9.30
2022-08-26T05:31:40.456Z,8.90
2022-08-26T05:32:40.471Z,8.90
2022-08-26T05:33:41.295Z,9.30
2022-08-26T05:34:40.497Z,9.40
2022-08-26T05:35:40.514Z,9.10
2022-08-26T05:36:40.524Z,9.00
2022-08-26T05:37:41.150Z,9.10
2022-08-26T05:38:40.552Z,8.80
2022-08-26T05:39:41.277Z,9.10
2022-08-26T05:40:40.697Z,9.20
2022-08-26T05:41:40.601Z,8.90
2022-08-26T05:42:40.610Z,9.10
2022-08-26T05:43:40.626Z,9.10
2022-08-26T05:44:55.634Z,9.20
2022-08-26T05:45:45.278Z,9.50
2022-08-26T05:46:40.714Z,9.50
2022-08-26T05:47:40.679Z,9.30
2022-08-26T05:48:40.695Z,8.60
2022-08-26T05:49:43.773Z,9.20
2022-08-26T05:50:40.729Z,8.90
2022-08-26T05:51:40.735Z,9.30
2022-08-26T05:52:40.748Z,9.20
2022-08-26T05:53:40.763Z,9.10
2022-08-26T05:54:40.778Z,9.10
2022-08-26T05:55:40.793Z,9.10
2022-08-26T05:56:40.806Z,8.90
2022-08-26T05:57:42.275Z,8.90
2022-08-26T05:58:40.836Z,8.80
2022-08-26T05:59:40.849Z,8.80
2022-08-26T06:00:41.677Z,9.40
2022-08-26T06:01:40.932Z,9.40
2022-08-26T06:02:40.943Z,9.10
2022-08-26T06:03:40.904Z,9.20
2022-08-26T06:04:40.922Z,9.00
2022-08-26T06:05:40.933Z,8.90
2022-08-26T06:06:40.947Z,9.10
2022-08-26T06:07:40.960Z,9.10
2022-08-26T06:08:40.975Z,8.70
2022-08-26T06:09:40.989Z,9.10
2022-08-26T06:10:41.005Z,8.60
2022-08-26T06:11:41.016Z,9.10
2022-08-26T06:12:41.030Z,8.90
2022-08-26T06:13:41.045Z,8.90
2022-08-26T06:14:41.058Z,8.90
2022-08-26T06:15:42.058Z,8.80
2022-08-26T06:16:41.248Z,9.50
2022-08-26T06:17:41.101Z,8.80
2022-08-26T06:18:41.116Z,8.90
2022-08-26T06:19:41.368Z,9.40
2022-08-26T06:20:41.144Z,9.30
2022-08-26T06:21:41.206Z,8.90
2022-08-26T06:22:41.172Z,8.90
2022-08-26T06:23:41.185Z,9.10
2022-08-26T06:24:41.201Z,9.20
2022-08-26T06:25:41.213Z,9.00
2022-08-26T06:26:42.645Z,9.20
2022-08-26T06:27:41.241Z,9.30
2022-08-26T06:28:41.255Z,9.20
2022-08-26T06:29:41.269Z,9.00
2022-08-26T06:30:41.340Z,9.20
2022-08-26T06:31:41.297Z,9.20
2022-08-26T06:32:41.313Z,9.10
2022-08-26T06:33:41.326Z,9.20
2022-08-26T06:34:41.338Z,9.50
2022-08-26T06:35:41.353Z,9.30
2022-08-26T06:36:41.368Z,9.20
2022-08-26T06:37:41.380Z,9.20
2022-08-26T06:38:41.396Z,9.00
2022-08-26T06:39:41.410Z,9.40
2022-08-26T06:40:41.423Z,8.90
2022-08-26T06:41:43.454Z,9.40
2022-08-26T06:42:41.453Z,9.40
2022-08-26T06:43:41.467Z,8.90
2022-08-26T06:44:41.480Z,8.80
2022-08-26T06:45:41.493Z,9.50
2022-08-26T06:46:41.572Z,9.20
2022-08-26T06:47:41.536Z,9.30
2022-08-26T06:48:41.535Z,9.50
2022-08-26T06:49:41.555Z,8.80
2022-08-26T06:50:41.564Z,9.20
2022-08-26T06:51:41.585Z,9.20
2022-08-26T06:52:41.591Z,9.00
2022-08-26T06:53:41.605Z,9.20
2022-08-26T06:54:41.621Z,9.40
2022-08-26T06:55:41.634Z,9.30
2022-08-26T06:56:41.649Z,9.00
2022-08-26T06:57:41.661Z,9.10
2022-08-26T06:58:41.677Z,8.50
2022-08-26T06:59:41.702Z,9.00
2022-08-26T07:00:41.723Z,9.50
2022-08-26T07:01:43.076Z,9.00
2022-08-26T07:02:41.851Z,9.10
2022-08-26T07:03:41.745Z,8.80
2022-08-26T07:04:41.758Z,9.10
2022-08-26T07:05:41.774Z,9.00
2022-08-26T07:06:41.789Z,9.00
2022-08-26T07:07:41.803Z,9.10
2022-08-26T07:08:41.817Z,9.50
2022-08-26T07:09:41.831Z,8.90
2022-08-26T07:10:41.846Z,9.50
2022-08-26T07:11:41.858Z,9.20
2022-08-26T07:12:41.870Z,8.80
2022-08-26T07:13:41.884Z,9.00
2022-08-26T07:14:43.782Z,9.20
2022-08-26T07:15:41.964Z,8.90
2022-08-26T07:16:41.929Z,9.00
2022-08-26T07:17:41.943Z,8.90
2022-08-26T07:18:41.956Z,8.90
2022-08-26T07:19:41.972Z,9.20
2022-08-26T07:20:42.253Z,9.00
2022-08-26T07:21:41.999Z,8.90
2022-08-26T07:22:42.012Z,9.30
2022-08-26T07:23:42.025Z,8.80
2022-08-26T07:24:42.464Z,8.90
2022-08-26T07:25:42.059Z,8.90
2022-08-26T07:26:42.849Z,8.80
2022-08-26T07:27:42.080Z,9.00
2022-08-26T07:28:42.096Z,8.70
2022-08-26T07:29:42.110Z,9.00
2022-08-26T07:30:42.204Z,8.70
2022-08-26T07:31:42.387Z,8.90
2022-08-26T07:32:42.150Z,9.00
2022-08-26T07:33:42.166Z,8.90
2022-08-26T07:34:42.179Z,8.80
2022-08-26T07:35:42.193Z,9.00
2022-08-26T07:36:42.207Z,8.90
2022-08-26T07:37:42.219Z,8.70
2022-08-26T07:38:42.235Z,8.90
2022-08-26T07:39:43.346Z,8.90
2022-08-26T07:40:42.261Z,8.80
2022-08-26T07:41:42.284Z,8.60
2022-08-26T07:42:42.289Z,9.20
2022-08-26T07:43:42.304Z,8.90
2022-08-26T07:44:42.319Z,9.10
2022-08-26T07:45:42.468Z,8.70
2022-08-26T07:46:42.350Z,9.00
2022-08-26T07:47:42.359Z,9.00
2022-08-26T07:48:46.174Z,9.00
2022-08-26T07:49:42.439Z,8.30
2022-08-26T07:50:50.105Z,8.90
2022-08-26T07:51:42.415Z,8.70
2022-08-26T07:52:42.428Z,8.80
2022-08-26T07:53:42.448Z,9.30
2022-08-26T07:54:42.459Z,9.20
2022-08-26T07:55:42.472Z,9.20
2022-08-26T07:56:44.278Z,8.70
2022-08-26T07:57:42.497Z,9.20
2022-08-26T07:58:42.565Z,9.20
2022-08-26T07:59:42.526Z,8.90
2022-08-26T08:00:42.539Z,8.90
2022-08-26T08:01:45.109Z,8.90
2022-08-26T08:02:42.567Z,9.10
2022-08-26T08:03:42.583Z,9.00
2022-08-26T08:04:42.643Z,9.00
2022-08-26T08:05:42.609Z,8.80
2022-08-26T08:06:43.900Z,9.30
2022-08-26T08:07:45.258Z,8.90
2022-08-26T08:08:42.651Z,9.20
2022-08-26T08:09:42.665Z,8.80
2022-08-26T08:10:42.681Z,8.80
2022-08-26T08:11:42.693Z,9.00
2022-08-26T08:12:42.707Z,8.70
2022-08-26T08:13:42.725Z,8.90
2022-08-26T08:14:42.734Z,8.70
2022-08-26T08:15:42.755Z,8.70
2022-08-26T08:16:46.747Z,8.60
2022-08-26T08:17:42.778Z,8.80
2022-08-26T08:18:42.791Z,9.20
2022-08-26T08:19:42.806Z,8.70
2022-08-26T08:20:47.626Z,8.70
2022-08-26T08:21:42.833Z,9.10
2022-08-26T08:22:42.847Z,9.00
2022-08-26T08:23:42.859Z,9.10
2022-08-26T08:24:42.871Z,8.90
2022-08-26T08:25:42.886Z,8.70
2022-08-26T08:26:42.901Z,9.10
2022-08-26T08:27:42.914Z,9.20
2022-08-26T08:28:42.929Z,9.10
2022-08-26T08:29:42.943Z,8.80
2022-08-26T08:30:42.999Z,8.60
2022-08-26T08:31:56.777Z,9.20
2022-08-26T08:32:42.984Z,8.80
2022-08-26T08:33:42.999Z,8.70
2022-08-26T08:35:43.033Z,8.70
2022-08-26T08:36:43.038Z,9.20
2022-08-26T08:37:43.054Z,9.20
2022-08-26T08:38:43.067Z,8.40
2022-08-26T08:39:43.081Z,9.00
2022-08-26T08:40:43.093Z,8.70
2022-08-26T08:41:43.107Z,9.10
2022-08-26T08:42:43.200Z,8.90
2022-08-26T08:43:43.137Z,8.50
2022-08-26T08:44:43.149Z,9.30
2022-08-26T08:45:43.204Z,8.70
2022-08-26T08:46:43.178Z,8.80
2022-08-26T08:47:43.191Z,8.70
2022-08-26T08:48:43.203Z,8.70
2022-08-26T08:49:43.220Z,8.50
2022-08-26T08:50:43.232Z,8.60
2022-08-26T08:51:43.246Z,8.90
2022-08-26T08:52:43.259Z,8.60
2022-08-26T08:53:43.313Z,8.70
2022-08-26T08:54:43.287Z,8.30
2022-08-26T08:55:43.302Z,8.90
2022-08-26T08:56:43.315Z,9.00
2022-08-26T08:57:43.328Z,8.80
2022-08-26T08:58:43.342Z,8.50
2022-08-26T08:59:43.356Z,8.70
2022-08-26T09:00:43.371Z,8.60
2022-08-26T09:01:43.430Z,8.90
2022-08-26T09:02:43.430Z,8.50
2022-08-26T09:03:43.412Z,8.90
2022-08-26T09:04:43.425Z,9.00
2022-08-26T09:05:48.052Z,8.90
2022-08-26T09:06:43.454Z,8.70
2022-08-26T09:07:43.470Z,8.90
2022-08-26T09:08:43.480Z,8.30
2022-08-26T09:09:43.495Z,8.80
2022-08-26T09:10:43.512Z,8.90
2022-08-26T09:11:43.522Z,9.10
2022-08-26T09:12:43.535Z,8.60
2022-08-26T09:13:43.548Z,9.20
2022-08-26T09:14:43.567Z,8.70
2022-08-26T09:15:43.577Z,8.60
2022-08-26T09:16:43.623Z,8.70
2022-08-26T09:17:43.604Z,8.30
2022-08-26T09:18:46.138Z,8.70
2022-08-26T09:19:43.633Z,8.80
2022-08-26T09:20:43.848Z,8.70
2022-08-26T09:21:43.862Z,8.90
2022-08-26T09:22:44.271Z,8.50
2022-08-26T09:23:43.687Z,8.40
2022-08-26T09:24:48.265Z,8.60
2022-08-26T09:25:43.726Z,8.90
2022-08-26T09:26:43.729Z,8.40
2022-08-26T09:27:43.741Z,8.80
2022-08-26T09:28:43.757Z,8.60
2022-08-26T09:29:43.768Z,8.50
2022-08-26T09:30:43.888Z,8.50
2022-08-26T09:31:43.797Z,8.40
2022-08-26T09:32:43.809Z,8.40
2022-08-26T09:33:43.823Z,9.10
2022-08-26T09:34:43.840Z,8.90
2022-08-26T09:35:43.856Z,8.80
2022-08-26T09:36:43.875Z,9.10
2022-08-26T09:37:43.883Z,9.10
2022-08-26T09:38:43.895Z,8.80
2022-08-26T09:39:43.907Z,9.10
2022-08-26T09:40:43.920Z,9.00
2022-08-26T09:41:43.935Z,9.10
2022-08-26T09:42:43.949Z,9.00
2022-08-26T09:43:43.966Z,9.00
2022-08-26T09:44:43.981Z,9.00
2022-08-26T09:45:49.932Z,9.50
2022-08-26T09:46:44.006Z,9.20
2022-08-26T09:47:44.021Z,9.40
2022-08-26T09:48:44.035Z,8.50
2022-08-26T09:49:44.046Z,9.10
2022-08-26T09:50:44.061Z,9.50
2022-08-26T09:51:44.073Z,9.10
2022-08-26T09:52:44.086Z,9.20
2022-08-26T09:53:44.098Z,9.10
2022-08-26T09:54:44.112Z,9.30
2022-08-26T09:55:44.126Z,9.30
2022-08-26T09:56:44.140Z,9.20
2022-08-26T09:57:44.153Z,9.30
2022-08-26T09:58:44.173Z,9.60
2022-08-26T09:59:44.185Z,9.40
2022-08-26T10:00:44.195Z,9.40
2022-08-26T10:01:44.804Z,9.40
2022-08-26T10:02:47.527Z,9.30
2022-08-26T10:03:44.291Z,9.20
2022-08-26T10:04:44.325Z,8.90
2022-08-26T10:05:44.265Z,9.20
2022-08-26T10:06:44.279Z,8.80
2022-08-26T10:07:44.293Z,9.20
2022-08-26T10:08:47.632Z,9.00
2022-08-26T10:09:44.319Z,8.90
2022-08-26T10:10:45.132Z,9.30
2022-08-26T10:11:44.349Z,9.60
2022-08-26T10:12:44.363Z,8.70
2022-08-26T10:13:44.383Z,8.90
2022-08-26T10:15:48.720Z,9.30
2022-08-26T10:16:44.478Z,9.10
2022-08-26T10:17:44.428Z,9.00
2022-08-26T10:18:44.441Z,9.20
2022-08-26T10:19:56.603Z,9.10
2022-08-26T10:20:44.468Z,9.20
2022-08-26T10:21:44.482Z,9.20
2022-08-26T10:22:44.498Z,9.30
2022-08-26T10:23:45.176Z,9.30
2022-08-26T10:24:44.524Z,9.50
2022-08-26T10:25:44.538Z,9.10
2022-08-26T10:26:44.552Z,8.40
2022-08-26T10:27:49.763Z,9.30
2022-08-26T10:28:44.579Z,9.60
2022-08-26T10:29:44.593Z,9.00
2022-08-26T10:30:44.619Z,9.00
2022-08-26T10:31:44.682Z,8.90
2022-08-26T10:32:44.632Z,9.30
2022-08-26T10:33:44.647Z,9.00
2022-08-26T10:34:44.661Z,9.50
2022-08-26T10:35:44.676Z,8.80
2022-08-26T10:37:10.533Z,9.00
2022-08-26T10:37:44.701Z,8.90
2022-08-26T10:38:44.716Z,9.00
2022-08-26T10:39:44.731Z,9.00
2022-08-26T10:40:44.857Z,8.80
2022-08-26T10:41:44.757Z,8.90
2022-08-26T10:42:44.771Z,8.60
2022-08-26T10:43:44.786Z,9.10
2022-08-26T10:44:45.606Z,9.00
2022-08-26T10:45:44.836Z,8.70
2022-08-26T10:46:44.829Z,9.00
2022-08-26T10:47:44.839Z,8.90
2022-08-26T10:48:45.259Z,9.00
2022-08-26T10:49:44.867Z,8.70
2022-08-26T10:50:44.880Z,9.30
2022-08-26T10:51:45.675Z,8.70
2022-08-26T10:52:44.906Z,8.80
2022-08-26T10:53:44.924Z,8.90
2022-08-26T10:54:44.936Z,9.10
2022-08-26T10:55:44.947Z,9.00
2022-08-26T10:56:44.960Z,9.10
2022-08-26T10:57:44.978Z,8.70
2022-08-26T10:58:44.993Z,9.10
2022-08-26T10:59:45.003Z,8.60
2022-08-26T11:00:45.060Z,8.90
2022-08-26T11:01:45.088Z,8.50
2022-08-26T11:02:46.936Z,8.80
2022-08-26T11:03:45.098Z,8.30
2022-08-26T11:04:48.247Z,9.40
2022-08-26T11:05:45.084Z,8.80
2022-08-26T11:06:45.502Z,8.50
2022-08-26T11:07:45.113Z,8.60
2022-08-26T11:08:45.326Z,8.50
2022-08-26T11:09:45.139Z,8.80
2022-08-26T11:10:45.155Z,8.90
2022-08-26T11:11:45.169Z,8.70
2022-08-26T11:12:45.180Z,8.70
2022-08-26T11:13:45.193Z,8.80
2022-08-26T11:14:53.328Z,8.40
2022-08-26T11:15:45.222Z,8.50
2022-08-26T11:16:45.359Z,8.60
2022-08-26T11:17:45.252Z,8.60
2022-08-26T11:18:45.261Z,8.60
2022-08-26T11:20:00.154Z,8.30
2022-08-26T11:20:45.288Z,8.60
2022-08-26T11:21:45.303Z,8.60
2022-08-26T11:22:47.469Z,8.40
2022-08-26T11:23:45.533Z,8.50
2022-08-26T11:24:45.546Z,8.30
2022-08-26T11:25:45.359Z,8.70
2022-08-26T11:26:55.374Z,8.40
2022-08-26T11:27:45.387Z,8.10
2022-08-26T11:28:45.399Z,8.40
2022-08-26T11:29:45.412Z,8.40
2022-08-26T11:30:45.426Z,8.50
2022-08-26T11:31:45.507Z,8.90
2022-08-26T11:32:45.452Z,8.50
2022-08-26T11:33:45.467Z,8.20
2022-08-26T11:34:45.480Z,8.50
2022-08-26T11:35:45.496Z,8.50
2022-08-26T11:36:45.511Z,7.70
2022-08-26T11:37:45.538Z,8.60
2022-08-26T11:38:45.536Z,8.10
2022-08-26T11:39:47.266Z,8.20
2022-08-26T11:40:45.629Z,8.40
2022-08-26T11:41:45.575Z,8.10
2022-08-26T11:42:45.590Z,8.50
2022-08-26T11:43:45.604Z,8.30
2022-08-26T11:44:49.215Z,8.10
2022-08-26T11:45:45.664Z,8.10
2022-08-26T11:46:45.847Z,8.10
2022-08-26T11:47:45.658Z,8.50
2022-08-26T11:48:45.875Z,8.60
2022-08-26T11:49:45.684Z,8.30
2022-08-26T11:50:45.699Z,8.40
2022-08-26T11:51:48.271Z,8.60
2022-08-26T11:52:45.725Z,8.30
2022-08-26T11:53:47.234Z,7.70
2022-08-26T11:54:45.753Z,8.50
2022-08-26T11:55:45.779Z,7.90
2022-08-26T11:56:45.781Z,7.80
2022-08-26T11:57:45.794Z,8.10
2022-08-26T11:58:45.809Z,7.90
2022-08-26T11:59:45.824Z,8.20
2022-08-26T12:00:45.908Z,8.30
2022-08-26T12:01:45.848Z,8.20
2022-08-26T12:02:45.864Z,8.20
2022-08-26T12:03:45.979Z,8.30
2022-08-26T12:04:45.971Z,8.10
2022-08-26T12:05:45.906Z,8.00
2022-08-26T12:06:45.935Z,7.90
2022-08-26T12:07:45.934Z,8.00
2022-08-26T12:08:45.944Z,8.00
2022-08-26T12:09:45.958Z,8.10
2022-08-26T12:10:45.974Z,7.90
2022-08-26T12:11:45.985Z,7.80
2022-08-26T12:12:46.000Z,8.20
2022-08-26T12:13:46.013Z,8.10
2022-08-26T12:14:46.027Z,7.50
2022-08-26T12:15:46.041Z,7.60
2022-08-26T12:16:46.144Z,7.70
2022-08-26T12:17:48.535Z,7.60
2022-08-26T12:18:46.081Z,7.90
2022-08-26T12:19:46.095Z,8.00
2022-08-26T12:20:46.335Z,7.70
2022-08-26T12:21:46.124Z,7.90
2022-08-26T12:22:48.145Z,7.60
2022-08-26T12:23:46.811Z,7.70
2022-08-26T12:24:46.163Z,7.70
2022-08-26T12:25:46.178Z,7.70
2022-08-26T12:26:46.191Z,7.80
2022-08-26T12:27:53.101Z,8.00
2022-08-26T12:28:46.221Z,7.60
2022-08-26T12:29:48.453Z,7.70
2022-08-26T12:30:46.246Z,7.60
2022-08-26T12:31:46.331Z,8.10
2022-08-26T12:32:57.306Z,7.10
2022-08-26T12:33:46.289Z,7.70
2022-08-26T12:34:46.299Z,7.50
2022-08-26T12:35:47.150Z,7.40
2022-08-26T12:36:46.368Z,7.60
2022-08-26T12:37:46.344Z,7.10
2022-08-26T12:38:46.355Z,7.40
2022-08-26T12:39:46.373Z,7.10
2022-08-26T12:40:46.382Z,7.60
2022-08-26T12:41:46.396Z,7.70
2022-08-26T12:42:46.410Z,7.70
2022-08-26T12:43:46.426Z,7.40
2022-08-26T12:44:53.978Z,7.00
2022-08-26T12:45:46.466Z,7.70
2022-08-26T12:46:49.694Z,7.30
2022-08-26T12:47:46.480Z,7.50
2022-08-26T12:48:46.491Z,7.40
2022-08-26T12:49:46.507Z,7.50
2022-08-26T12:50:46.519Z,7.60
2022-08-26T12:51:47.141Z,7.10
2022-08-26T12:52:46.556Z,7.60
2022-08-26T12:53:46.562Z,7.30
2022-08-26T12:54:46.979Z,7.10
2022-08-26T12:55:46.590Z,7.50
2022-08-26T12:56:46.604Z,7.80
2022-08-26T12:57:46.817Z,7.30
2022-08-26T12:58:46.697Z,7.30
2022-08-26T12:59:46.643Z,7.50
2022-08-26T13:00:46.796Z,7.50
2022-08-26T13:01:47.039Z,7.00
2022-08-26T13:02:47.290Z,7.30
2022-08-26T13:03:46.705Z,7.20
2022-08-26T13:04:46.713Z,7.00
2022-08-26T13:05:46.724Z,7.20
2022-08-26T13:06:46.741Z,7.00
2022-08-26T13:07:46.753Z,7.20
2022-08-26T13:08:46.765Z,7.20
2022-08-26T13:09:46.781Z,6.80
2022-08-26T13:10:46.795Z,7.00
2022-08-26T13:11:46.808Z,7.30
2022-08-26T13:12:46.821Z,7.30
2022-08-26T13:13:46.836Z,7.40
2022-08-26T13:14:46.850Z,7.20
2022-08-26T13:15:46.865Z,6.70
2022-08-26T13:16:46.876Z,7.20
2022-08-26T13:17:46.890Z,7.20